sensor_id;sensor_type;location;lat;lon;timestamp;P1;durP1;ratioP1;P2;durP2;ratioP2
72408;SDS011;60402;48.082;11.628;2023-05-17T00:02:32;5.43;;;2.20;;
72408;SDS011;60402;48.082;11.628;2023-05-17T00:05:18;6.38;;;2.28;;
72408;SDS011;60402;48.082;11.628;2023-05-17T00:08:04;4.65;;;2.00;;
72408;SDS011;60402;48.082;11.628;2023-05-17T00:10:49;6.25;;;2.33;;
72408;SDS011;60402;48.082;11.628;2023-05-17T00:13:35;5.65;;;2.25;;
72408;SDS011;60402;48.082;11.628;2023-05-17T00:16:22;5.65;;;2.50;;
72408;SDS011;60402;48.082;11.628;2023-05-17T00:19:08;4.53;;;1.73;;
72408;SDS011;60402;48.082;11.628;2023-05-17T00:21:53;7.60;;;2.33;;
72408;SDS011;60402;48.082;11.628;2023-05-17T00:24:39;6.72;;;2.10;;
72408;SDS011;60402;48.082;11.628;2023-05-17T00:27:25;5.97;;;2.20;;
72408;SDS011;60402;48.082;11.628;2023-05-17T00:30:10;5.88;;;2.50;;
72408;SDS011;60402;48.082;11.628;2023-05-17T00:32:56;7.07;;;2.30;;
72408;SDS011;60402;48.082;11.628;2023-05-17T00:35:42;7.78;;;3.17;;
72408;SDS011;60402;48.082;11.628;2023-05-17T00:38:28;6.57;;;2.00;;
72408;SDS011;60402;48.082;11.628;2023-05-17T00:41:13;7.00;;;2.05;;
72408;SDS011;60402;48.082;11.628;2023-05-17T00:43:59;6.60;;;1.88;;
72408;SDS011;60402;48.082;11.628;2023-05-17T00:46:45;3.85;;;2.00;;
72408;SDS011;60402;48.082;11.628;2023-05-17T00:49:31;5.10;;;2.47;;
72408;SDS011;60402;48.082;11.628;2023-05-17T00:52:16;5.32;;;2.10;;
72408;SDS011;60402;48.082;11.628;2023-05-17T00:55:02;4.70;;;2.13;;
72408;SDS011;60402;48.082;11.628;2023-05-17T00:57:48;5.97;;;2.40;;
72408;SDS011;60402;48.082;11.628;2023-05-17T01:00:34;7.03;;;2.25;;
72408;SDS011;60402;48.082;11.628;2023-05-17T01:03:19;6.30;;;1.98;;
72408;SDS011;60402;48.082;11.628;2023-05-17T01:06:06;5.68;;;2.17;;
72408;SDS011;60402;48.082;11.628;2023-05-17T01:08:52;4.30;;;1.95;;
72408;SDS011;60402;48.082;11.628;2023-05-17T01:11:43;6.82;;;2.17;;
72408;SDS011;60402;48.082;11.628;2023-05-17T01:20:59;4.22;;;2.00;;
72408;SDS011;60402;48.082;11.628;2023-05-17T01:24:02;6.10;;;1.90;;
72408;SDS011;60402;48.082;11.628;2023-05-17T01:27:20;5.75;;;2.05;;
72408;SDS011;60402;48.082;11.628;2023-05-17T01:30:11;5.90;;;2.42;;
72408;SDS011;60402;48.082;11.628;2023-05-17T01:32:58;4.32;;;1.85;;
72408;SDS011;60402;48.082;11.628;2023-05-17T01:35:45;8.48;;;1.90;;
72408;SDS011;60402;48.082;11.628;2023-05-17T01:38:30;5.20;;;2.03;;
72408;SDS011;60402;48.082;11.628;2023-05-17T01:41:32;3.92;;;1.67;;
72408;SDS011;60402;48.082;11.628;2023-05-17T01:47:19;4.55;;;1.83;;
72408;SDS011;60402;48.082;11.628;2023-05-17T01:50:14;5.05;;;1.77;;
72408;SDS011;60402;48.082;11.628;2023-05-17T01:53:09;3.40;;;1.80;;
72408;SDS011;60402;48.082;11.628;2023-05-17T01:56:03;5.32;;;2.42;;
72408;SDS011;60402;48.082;11.628;2023-05-17T01:58:54;4.82;;;1.80;;
72408;SDS011;60402;48.082;11.628;2023-05-17T02:01:41;5.80;;;2.05;;
72408;SDS011;60402;48.082;11.628;2023-05-17T02:04:28;4.20;;;2.30;;
72408;SDS011;60402;48.082;11.628;2023-05-17T02:07:14;5.13;;;2.50;;
72408;SDS011;60402;48.082;11.628;2023-05-17T02:10:00;5.80;;;2.00;;
72408;SDS011;60402;48.082;11.628;2023-05-17T02:12:46;7.15;;;2.13;;
72408;SDS011;60402;48.082;11.628;2023-05-17T02:15:31;5.82;;;2.28;;
72408;SDS011;60402;48.082;11.628;2023-05-17T02:18:17;6.35;;;2.05;;
72408;SDS011;60402;48.082;11.628;2023-05-17T02:21:06;6.72;;;2.30;;
72408;SDS011;60402;48.082;11.628;2023-05-17T02:23:51;6.28;;;2.00;;
72408;SDS011;60402;48.082;11.628;2023-05-17T02:26:37;5.53;;;2.22;;
72408;SDS011;60402;48.082;11.628;2023-05-17T02:29:27;7.45;;;2.33;;
72408;SDS011;60402;48.082;11.628;2023-05-17T02:32:12;5.50;;;2.20;;
72408;SDS011;60402;48.082;11.628;2023-05-17T02:34:58;5.93;;;2.17;;
72408;SDS011;60402;48.082;11.628;2023-05-17T02:37:44;9.45;;;2.40;;
72408;SDS011;60402;48.082;11.628;2023-05-17T02:40:29;8.05;;;2.25;;
72408;SDS011;60402;48.082;11.628;2023-05-17T02:43:15;9.65;;;2.65;;
72408;SDS011;60402;48.082;11.628;2023-05-17T02:46:00;7.80;;;2.50;;
72408;SDS011;60402;48.082;11.628;2023-05-17T02:48:46;8.27;;;2.50;;
72408;SDS011;60402;48.082;11.628;2023-05-17T02:51:32;7.13;;;2.35;;
72408;SDS011;60402;48.082;11.628;2023-05-17T02:54:17;6.82;;;2.25;;
72408;SDS011;60402;48.082;11.628;2023-05-17T02:57:03;5.05;;;2.70;;
72408;SDS011;60402;48.082;11.628;2023-05-17T02:59:49;8.85;;;2.40;;
72408;SDS011;60402;48.082;11.628;2023-05-17T03:02:35;8.63;;;2.08;;
72408;SDS011;60402;48.082;11.628;2023-05-17T03:05:20;5.95;;;2.20;;
72408;SDS011;60402;48.082;11.628;2023-05-17T03:08:06;6.63;;;2.10;;
72408;SDS011;60402;48.082;11.628;2023-05-17T03:10:52;4.30;;;1.88;;
72408;SDS011;60402;48.082;11.628;2023-05-17T03:13:37;5.57;;;2.10;;
72408;SDS011;60402;48.082;11.628;2023-05-17T03:16:23;5.30;;;2.10;;
72408;SDS011;60402;48.082;11.628;2023-05-17T03:19:09;7.47;;;2.30;;
72408;SDS011;60402;48.082;11.628;2023-05-17T03:21:55;5.65;;;2.05;;
72408;SDS011;60402;48.082;11.628;2023-05-17T03:24:40;4.18;;;1.73;;
72408;SDS011;60402;48.082;11.628;2023-05-17T03:27:26;4.25;;;2.03;;
72408;SDS011;60402;48.082;11.628;2023-05-17T03:30:11;3.78;;;1.80;;
72408;SDS011;60402;48.082;11.628;2023-05-17T03:32:57;4.95;;;1.92;;
72408;SDS011;60402;48.082;11.628;2023-05-17T03:35:43;4.30;;;1.95;;
72408;SDS011;60402;48.082;11.628;2023-05-17T03:38:31;4.30;;;1.80;;
72408;SDS011;60402;48.082;11.628;2023-05-17T03:41:16;3.47;;;1.75;;
72408;SDS011;60402;48.082;11.628;2023-05-17T03:44:02;5.30;;;2.35;;
72408;SDS011;60402;48.082;11.628;2023-05-17T03:46:48;5.57;;;2.05;;
72408;SDS011;60402;48.082;11.628;2023-05-17T03:49:33;4.78;;;2.15;;
72408;SDS011;60402;48.082;11.628;2023-05-17T03:52:19;2.90;;;1.80;;
72408;SDS011;60402;48.082;11.628;2023-05-17T03:55:05;5.05;;;2.03;;
72408;SDS011;60402;48.082;11.628;2023-05-17T03:57:50;4.93;;;2.40;;
72408;SDS011;60402;48.082;11.628;2023-05-17T04:00:36;5.15;;;2.03;;
72408;SDS011;60402;48.082;11.628;2023-05-17T04:03:22;5.22;;;2.30;;
72408;SDS011;60402;48.082;11.628;2023-05-17T04:06:07;6.63;;;1.80;;
72408;SDS011;60402;48.082;11.628;2023-05-17T04:08:53;4.15;;;1.80;;
72408;SDS011;60402;48.082;11.628;2023-05-17T04:11:39;6.45;;;2.42;;
72408;SDS011;60402;48.082;11.628;2023-05-17T04:14:26;3.85;;;1.67;;
72408;SDS011;60402;48.082;11.628;2023-05-17T04:17:11;7.53;;;2.17;;
72408;SDS011;60402;48.082;11.628;2023-05-17T04:19:57;5.10;;;1.80;;
72408;SDS011;60402;48.082;11.628;2023-05-17T04:22:42;6.13;;;1.65;;
72408;SDS011;60402;48.082;11.628;2023-05-17T04:25:28;6.72;;;1.80;;
72408;SDS011;60402;48.082;11.628;2023-05-17T04:28:14;5.05;;;1.70;;
72408;SDS011;60402;48.082;11.628;2023-05-17T04:30:59;3.75;;;1.60;;
72408;SDS011;60402;48.082;11.628;2023-05-17T04:33:45;2.55;;;1.27;;
72408;SDS011;60402;48.082;11.628;2023-05-17T04:36:31;3.53;;;1.70;;
72408;SDS011;60402;48.082;11.628;2023-05-17T04:39:16;3.63;;;1.60;;
72408;SDS011;60402;48.082;11.628;2023-05-17T04:42:02;3.42;;;1.80;;
72408;SDS011;60402;48.082;11.628;2023-05-17T04:44:48;4.53;;;1.80;;
72408;SDS011;60402;48.082;11.628;2023-05-17T04:47:34;6.68;;;1.80;;
72408;SDS011;60402;48.082;11.628;2023-05-17T04:50:19;6.05;;;1.88;;
72408;SDS011;60402;48.082;11.628;2023-05-17T04:53:05;4.20;;;1.40;;
72408;SDS011;60402;48.082;11.628;2023-05-17T04:55:51;6.00;;;1.67;;
72408;SDS011;60402;48.082;11.628;2023-05-17T04:58:37;5.55;;;1.70;;
72408;SDS011;60402;48.082;11.628;2023-05-17T05:01:22;4.55;;;1.70;;
72408;SDS011;60402;48.082;11.628;2023-05-17T05:04:08;6.45;;;1.90;;
72408;SDS011;60402;48.082;11.628;2023-05-17T05:06:54;4.00;;;1.88;;
72408;SDS011;60402;48.082;11.628;2023-05-17T05:09:39;4.07;;;1.58;;
72408;SDS011;60402;48.082;11.628;2023-05-17T05:12:25;3.58;;;1.33;;
72408;SDS011;60402;48.082;11.628;2023-05-17T05:15:11;3.15;;;1.50;;
72408;SDS011;60402;48.082;11.628;2023-05-17T05:17:56;4.30;;;1.63;;
72408;SDS011;60402;48.082;11.628;2023-05-17T05:20:42;4.20;;;1.35;;
72408;SDS011;60402;48.082;11.628;2023-05-17T05:23:28;5.45;;;1.52;;
72408;SDS011;60402;48.082;11.628;2023-05-17T05:26:13;6.72;;;1.73;;
72408;SDS011;60402;48.082;11.628;2023-05-17T05:28:59;4.25;;;1.40;;
72408;SDS011;60402;48.082;11.628;2023-05-17T05:31:45;3.60;;;1.58;;
72408;SDS011;60402;48.082;11.628;2023-05-17T05:34:31;2.97;;;1.27;;
72408;SDS011;60402;48.082;11.628;2023-05-17T05:37:16;3.85;;;1.60;;
72408;SDS011;60402;48.082;11.628;2023-05-17T05:40:03;2.92;;;1.40;;
72408;SDS011;60402;48.082;11.628;2023-05-17T05:42:49;7.43;;;1.65;;
72408;SDS011;60402;48.082;11.628;2023-05-17T05:45:35;4.00;;;1.50;;
72408;SDS011;60402;48.082;11.628;2023-05-17T05:48:21;3.20;;;1.35;;
72408;SDS011;60402;48.082;11.628;2023-05-17T05:51:07;6.30;;;1.80;;
72408;SDS011;60402;48.082;11.628;2023-05-17T05:53:52;5.85;;;1.77;;
72408;SDS011;60402;48.082;11.628;2023-05-17T05:56:38;3.25;;;1.70;;
72408;SDS011;60402;48.082;11.628;2023-05-17T05:59:24;3.90;;;1.83;;
72408;SDS011;60402;48.082;11.628;2023-05-17T06:02:09;3.55;;;1.70;;
72408;SDS011;60402;48.082;11.628;2023-05-17T06:04:56;5.00;;;1.55;;
72408;SDS011;60402;48.082;11.628;2023-05-17T06:07:42;3.92;;;1.45;;
72408;SDS011;60402;48.082;11.628;2023-05-17T06:10:28;4.65;;;1.75;;
72408;SDS011;60402;48.082;11.628;2023-05-17T06:13:13;3.97;;;1.65;;
72408;SDS011;60402;48.082;11.628;2023-05-17T06:15:59;5.63;;;1.50;;
72408;SDS011;60402;48.082;11.628;2023-05-17T06:18:45;6.55;;;1.77;;
72408;SDS011;60402;48.082;11.628;2023-05-17T06:21:30;4.05;;;1.80;;
72408;SDS011;60402;48.082;11.628;2023-05-17T06:24:16;4.47;;;1.60;;
72408;SDS011;60402;48.082;11.628;2023-05-17T06:27:02;3.88;;;1.35;;
72408;SDS011;60402;48.082;11.628;2023-05-17T06:29:48;2.38;;;1.20;;
72408;SDS011;60402;48.082;11.628;2023-05-17T06:32:34;3.92;;;1.65;;
72408;SDS011;60402;48.082;11.628;2023-05-17T06:35:19;7.75;;;1.98;;
72408;SDS011;60402;48.082;11.628;2023-05-17T06:38:05;6.50;;;1.73;;
72408;SDS011;60402;48.082;11.628;2023-05-17T06:40:54;6.03;;;1.80;;
72408;SDS011;60402;48.082;11.628;2023-05-17T06:43:41;3.63;;;1.52;;
72408;SDS011;60402;48.082;11.628;2023-05-17T06:46:27;6.95;;;1.85;;
72408;SDS011;60402;48.082;11.628;2023-05-17T06:49:12;4.70;;;1.50;;
72408;SDS011;60402;48.082;11.628;2023-05-17T06:51:58;6.20;;;1.70;;
72408;SDS011;60402;48.082;11.628;2023-05-17T06:54:47;3.00;;;1.30;;
72408;SDS011;60402;48.082;11.628;2023-05-17T06:57:33;3.78;;;1.63;;
72408;SDS011;60402;48.082;11.628;2023-05-17T07:00:20;4.80;;;1.33;;
72408;SDS011;60402;48.082;11.628;2023-05-17T07:03:06;5.53;;;1.35;;
72408;SDS011;60402;48.082;11.628;2023-05-17T07:05:52;5.63;;;1.30;;
72408;SDS011;60402;48.082;11.628;2023-05-17T07:08:37;4.40;;;1.50;;
72408;SDS011;60402;48.082;11.628;2023-05-17T07:11:24;6.15;;;1.60;;
72408;SDS011;60402;48.082;11.628;2023-05-17T07:14:10;3.47;;;1.50;;
72408;SDS011;60402;48.082;11.628;2023-05-17T07:16:56;4.65;;;1.50;;
72408;SDS011;60402;48.082;11.628;2023-05-17T07:19:41;2.00;;;0.90;;
72408;SDS011;60402;48.082;11.628;2023-05-17T07:22:27;2.58;;;1.10;;
72408;SDS011;60402;48.082;11.628;2023-05-17T07:25:13;4.68;;;1.38;;
72408;SDS011;60402;48.082;11.628;2023-05-17T07:28:00;6.20;;;1.50;;
72408;SDS011;60402;48.082;11.628;2023-05-17T07:30:45;4.03;;;1.23;;
72408;SDS011;60402;48.082;11.628;2023-05-17T07:33:31;2.95;;;1.30;;
72408;SDS011;60402;48.082;11.628;2023-05-17T07:36:17;6.68;;;2.03;;
72408;SDS011;60402;48.082;11.628;2023-05-17T07:39:02;7.10;;;1.70;;
72408;SDS011;60402;48.082;11.628;2023-05-17T07:41:49;5.00;;;1.20;;
72408;SDS011;60402;48.082;11.628;2023-05-17T07:44:35;7.05;;;1.35;;
72408;SDS011;60402;48.082;11.628;2023-05-17T07:47:20;3.20;;;1.08;;
72408;SDS011;60402;48.082;11.628;2023-05-17T07:50:06;3.22;;;1.30;;
72408;SDS011;60402;48.082;11.628;2023-05-17T07:52:52;4.13;;;1.00;;
72408;SDS011;60402;48.082;11.628;2023-05-17T07:55:38;4.07;;;1.08;;
72408;SDS011;60402;48.082;11.628;2023-05-17T07:58:23;6.15;;;1.40;;
72408;SDS011;60402;48.082;11.628;2023-05-17T08:01:09;4.38;;;1.10;;
72408;SDS011;60402;48.082;11.628;2023-05-17T08:03:55;3.13;;;1.10;;
72408;SDS011;60402;48.082;11.628;2023-05-17T08:06:41;4.32;;;2.03;;
72408;SDS011;60402;48.082;11.628;2023-05-17T08:09:29;3.40;;;1.00;;
72408;SDS011;60402;48.082;11.628;2023-05-17T08:12:15;2.25;;;1.00;;
72408;SDS011;60402;48.082;11.628;2023-05-17T08:15:01;3.22;;;1.17;;
72408;SDS011;60402;48.082;11.628;2023-05-17T08:17:47;4.65;;;1.20;;
72408;SDS011;60402;48.082;11.628;2023-05-17T08:20:32;3.63;;;1.10;;
72408;SDS011;60402;48.082;11.628;2023-05-17T08:23:18;4.50;;;1.35;;
72408;SDS011;60402;48.082;11.628;2023-05-17T08:26:04;6.43;;;1.30;;
72408;SDS011;60402;48.082;11.628;2023-05-17T08:28:49;1.92;;;1.10;;
72408;SDS011;60402;48.082;11.628;2023-05-17T08:31:35;2.15;;;1.10;;
72408;SDS011;60402;48.082;11.628;2023-05-17T08:34:21;6.00;;;1.75;;
72408;SDS011;60402;48.082;11.628;2023-05-17T08:37:07;2.88;;;1.00;;
72408;SDS011;60402;48.082;11.628;2023-05-17T08:39:52;5.22;;;1.20;;
72408;SDS011;60402;48.082;11.628;2023-05-17T08:42:38;5.38;;;1.60;;
72408;SDS011;60402;48.082;11.628;2023-05-17T08:45:25;5.88;;;1.35;;
72408;SDS011;60402;48.082;11.628;2023-05-17T08:48:11;2.63;;;1.15;;
72408;SDS011;60402;48.082;11.628;2023-05-17T08:50:56;3.70;;;1.27;;
72408;SDS011;60402;48.082;11.628;2023-05-17T08:53:42;3.25;;;1.20;;
72408;SDS011;60402;48.082;11.628;2023-05-17T08:56:31;8.05;;;1.88;;
72408;SDS011;60402;48.082;11.628;2023-05-17T08:59:19;4.45;;;1.10;;
72408;SDS011;60402;48.082;11.628;2023-05-17T09:02:06;3.88;;;1.23;;
72408;SDS011;60402;48.082;11.628;2023-05-17T09:04:52;3.30;;;1.30;;
72408;SDS011;60402;48.082;11.628;2023-05-17T09:07:39;2.10;;;1.30;;
72408;SDS011;60402;48.082;11.628;2023-05-17T09:10:26;5.10;;;1.38;;
72408;SDS011;60402;48.082;11.628;2023-05-17T09:13:12;4.65;;;1.10;;
72408;SDS011;60402;48.082;11.628;2023-05-17T09:15:58;4.25;;;1.33;;
72408;SDS011;60402;48.082;11.628;2023-05-17T09:18:45;5.50;;;1.33;;
72408;SDS011;60402;48.082;11.628;2023-05-17T09:21:37;4.90;;;2.13;;
72408;SDS011;60402;48.082;11.628;2023-05-17T09:24:27;5.63;;;1.48;;
72408;SDS011;60402;48.082;11.628;2023-05-17T09:27:17;5.47;;;1.38;;
72408;SDS011;60402;48.082;11.628;2023-05-17T09:30:05;4.70;;;1.27;;
72408;SDS011;60402;48.082;11.628;2023-05-17T09:32:54;4.22;;;1.45;;
72408;SDS011;60402;48.082;11.628;2023-05-17T09:35:41;5.55;;;1.20;;
72408;SDS011;60402;48.082;11.628;2023-05-17T09:38:28;4.97;;;1.40;;
72408;SDS011;60402;48.082;11.628;2023-05-17T09:41:14;3.60;;;1.60;;
72408;SDS011;60402;48.082;11.628;2023-05-17T09:44:00;4.47;;;1.42;;
72408;SDS011;60402;48.082;11.628;2023-05-17T09:46:53;5.13;;;1.80;;
72408;SDS011;60402;48.082;11.628;2023-05-17T09:52:27;3.92;;;1.40;;
72408;SDS011;60402;48.082;11.628;2023-05-17T09:55:16;5.90;;;1.27;;
72408;SDS011;60402;48.082;11.628;2023-05-17T09:58:02;3.45;;;1.23;;
72408;SDS011;60402;48.082;11.628;2023-05-17T10:00:50;8.07;;;1.73;;
72408;SDS011;60402;48.082;11.628;2023-05-17T10:03:40;2.88;;;1.98;;
72408;SDS011;60402;48.082;11.628;2023-05-17T10:06:26;4.10;;;1.25;;
72408;SDS011;60402;48.082;11.628;2023-05-17T10:09:13;3.28;;;1.38;;
72408;SDS011;60402;48.082;11.628;2023-05-17T10:12:01;4.45;;;1.40;;
72408;SDS011;60402;48.082;11.628;2023-05-17T10:14:47;4.72;;;1.40;;
72408;SDS011;60402;48.082;11.628;2023-05-17T10:17:33;4.85;;;1.40;;
72408;SDS011;60402;48.082;11.628;2023-05-17T10:20:20;3.72;;;1.40;;
72408;SDS011;60402;48.082;11.628;2023-05-17T10:23:05;4.70;;;1.52;;
72408;SDS011;60402;48.082;11.628;2023-05-17T10:25:58;5.15;;;1.45;;
72408;SDS011;60402;48.082;11.628;2023-05-17T10:31:36;3.20;;;1.23;;
72408;SDS011;60402;48.082;11.628;2023-05-17T10:34:22;5.20;;;1.40;;
72408;SDS011;60402;48.082;11.628;2023-05-17T10:37:10;4.15;;;1.30;;
72408;SDS011;60402;48.082;11.628;2023-05-17T10:39:58;3.97;;;1.42;;
72408;SDS011;60402;48.082;11.628;2023-05-17T10:42:54;4.40;;;1.50;;
72408;SDS011;60402;48.082;11.628;2023-05-17T10:45:40;4.15;;;1.58;;
72408;SDS011;60402;48.082;11.628;2023-05-17T10:48:27;5.40;;;1.20;;
72408;SDS011;60402;48.082;11.628;2023-05-17T10:56:58;6.22;;;1.48;;
72408;SDS011;60402;48.082;11.628;2023-05-17T10:59:58;4.25;;;1.30;;
72408;SDS011;60402;48.082;11.628;2023-05-17T11:02:45;2.40;;;1.05;;
72408;SDS011;60402;48.082;11.628;2023-05-17T11:05:32;3.05;;;1.10;;
72408;SDS011;60402;48.082;11.628;2023-05-17T11:08:18;4.07;;;1.38;;
72408;SDS011;60402;48.082;11.628;2023-05-17T11:11:11;3.97;;;1.10;;
72408;SDS011;60402;48.082;11.628;2023-05-17T11:14:03;4.78;;;1.30;;
72408;SDS011;60402;48.082;11.628;2023-05-17T11:16:50;5.82;;;1.40;;
72408;SDS011;60402;48.082;11.628;2023-05-17T11:25:27;2.97;;;1.10;;
72408;SDS011;60402;48.082;11.628;2023-05-17T11:28:18;3.53;;;1.10;;
72408;SDS011;60402;48.082;11.628;2023-05-17T11:31:06;2.35;;;1.17;;
72408;SDS011;60402;48.082;11.628;2023-05-17T11:33:52;2.45;;;1.00;;
72408;SDS011;60402;48.082;11.628;2023-05-17T11:36:51;5.50;;;1.58;;
72408;SDS011;60402;48.082;11.628;2023-05-17T11:39:37;5.03;;;1.15;;
72408;SDS011;60402;48.082;11.628;2023-05-17T11:42:49;5.55;;;1.40;;
72408;SDS011;60402;48.082;11.628;2023-05-17T11:45:46;4.53;;;1.30;;
72408;SDS011;60402;48.082;11.628;2023-05-17T11:48:35;4.07;;;1.15;;
72408;SDS011;60402;48.082;11.628;2023-05-17T11:51:21;3.60;;;1.00;;
72408;SDS011;60402;48.082;11.628;2023-05-17T11:54:06;4.85;;;1.00;;
72408;SDS011;60402;48.082;11.628;2023-05-17T11:56:53;5.15;;;1.10;;
72408;SDS011;60402;48.082;11.628;2023-05-17T11:59:40;3.05;;;1.20;;
72408;SDS011;60402;48.082;11.628;2023-05-17T12:02:29;2.85;;;1.20;;
72408;SDS011;60402;48.082;11.628;2023-05-17T12:05:18;3.22;;;1.10;;
72408;SDS011;60402;48.082;11.628;2023-05-17T12:08:04;2.72;;;0.85;;
72408;SDS011;60402;48.082;11.628;2023-05-17T12:10:51;2.80;;;0.85;;
72408;SDS011;60402;48.082;11.628;2023-05-17T12:13:37;2.53;;;1.00;;
72408;SDS011;60402;48.082;11.628;2023-05-17T12:16:24;2.00;;;0.80;;
72408;SDS011;60402;48.082;11.628;2023-05-17T12:19:17;3.25;;;1.20;;
72408;SDS011;60402;48.082;11.628;2023-05-17T12:22:05;3.22;;;0.82;;
72408;SDS011;60402;48.082;11.628;2023-05-17T12:24:56;3.65;;;0.98;;
72408;SDS011;60402;48.082;11.628;2023-05-17T12:27:42;5.15;;;1.00;;
72408;SDS011;60402;48.082;11.628;2023-05-17T12:30:28;4.63;;;0.98;;
72408;SDS011;60402;48.082;11.628;2023-05-17T12:33:13;3.22;;;0.95;;
72408;SDS011;60402;48.082;11.628;2023-05-17T12:36:00;3.35;;;1.17;;
72408;SDS011;60402;48.082;11.628;2023-05-17T12:38:47;2.83;;;1.02;;
72408;SDS011;60402;48.082;11.628;2023-05-17T12:41:33;3.40;;;0.90;;
72408;SDS011;60402;48.082;11.628;2023-05-17T12:44:19;2.53;;;0.90;;
72408;SDS011;60402;48.082;11.628;2023-05-17T12:47:05;4.65;;;1.10;;
72408;SDS011;60402;48.082;11.628;2023-05-17T12:49:54;3.13;;;1.00;;
72408;SDS011;60402;48.082;11.628;2023-05-17T12:52:40;3.00;;;1.00;;
72408;SDS011;60402;48.082;11.628;2023-05-17T12:55:26;3.72;;;1.13;;
72408;SDS011;60402;48.082;11.628;2023-05-17T12:58:21;3.13;;;1.20;;
72408;SDS011;60402;48.082;11.628;2023-05-17T13:01:06;3.95;;;1.40;;
72408;SDS011;60402;48.082;11.628;2023-05-17T13:03:54;4.03;;;1.17;;
72408;SDS011;60402;48.082;11.628;2023-05-17T13:09:33;7.03;;;1.40;;
72408;SDS011;60402;48.082;11.628;2023-05-17T13:12:32;4.30;;;1.25;;
72408;SDS011;60402;48.082;11.628;2023-05-17T13:15:17;3.38;;;1.20;;
72408;SDS011;60402;48.082;11.628;2023-05-17T13:18:10;6.50;;;2.47;;
72408;SDS011;60402;48.082;11.628;2023-05-17T13:20:58;4.28;;;1.38;;
72408;SDS011;60402;48.082;11.628;2023-05-17T13:23:45;3.10;;;1.10;;
72408;SDS011;60402;48.082;11.628;2023-05-17T13:26:31;3.40;;;0.80;;
72408;SDS011;60402;48.082;11.628;2023-05-17T13:29:17;2.92;;;1.23;;
72408;SDS011;60402;48.082;11.628;2023-05-17T13:32:02;3.10;;;0.90;;
72408;SDS011;60402;48.082;11.628;2023-05-17T13:34:49;3.15;;;1.00;;
72408;SDS011;60402;48.082;11.628;2023-05-17T13:37:34;4.07;;;1.20;;
72408;SDS011;60402;48.082;11.628;2023-05-17T13:40:20;4.03;;;1.20;;
72408;SDS011;60402;48.082;11.628;2023-05-17T13:43:06;4.95;;;1.55;;
72408;SDS011;60402;48.082;11.628;2023-05-17T13:45:53;3.25;;;1.10;;
72408;SDS011;60402;48.082;11.628;2023-05-17T13:48:43;3.55;;;1.33;;
72408;SDS011;60402;48.082;11.628;2023-05-17T13:51:29;6.90;;;1.60;;
72408;SDS011;60402;48.082;11.628;2023-05-17T13:54:15;3.53;;;1.25;;
72408;SDS011;60402;48.082;11.628;2023-05-17T13:57:00;2.63;;;1.15;;
72408;SDS011;60402;48.082;11.628;2023-05-17T13:59:46;5.65;;;1.52;;
72408;SDS011;60402;48.082;11.628;2023-05-17T14:02:32;4.25;;;1.42;;
72408;SDS011;60402;48.082;11.628;2023-05-17T14:05:17;6.35;;;1.42;;
72408;SDS011;60402;48.082;11.628;2023-05-17T14:08:03;6.18;;;1.85;;
72408;SDS011;60402;48.082;11.628;2023-05-17T14:10:49;5.93;;;1.60;;
72408;SDS011;60402;48.082;11.628;2023-05-17T14:13:34;4.00;;;1.48;;
72408;SDS011;60402;48.082;11.628;2023-05-17T14:16:20;5.72;;;1.52;;
72408;SDS011;60402;48.082;11.628;2023-05-17T14:19:07;4.75;;;1.65;;
72408;SDS011;60402;48.082;11.628;2023-05-17T14:21:52;3.25;;;1.40;;
72408;SDS011;60402;48.082;11.628;2023-05-17T14:24:38;4.53;;;2.03;;
72408;SDS011;60402;48.082;11.628;2023-05-17T14:27:23;3.47;;;1.80;;
72408;SDS011;60402;48.082;11.628;2023-05-17T14:30:09;4.43;;;1.90;;
72408;SDS011;60402;48.082;11.628;2023-05-17T14:32:55;3.95;;;1.40;;
72408;SDS011;60402;48.082;11.628;2023-05-17T14:35:42;5.43;;;1.80;;
72408;SDS011;60402;48.082;11.628;2023-05-17T14:38:28;4.30;;;1.45;;
72408;SDS011;60402;48.082;11.628;2023-05-17T14:41:14;5.18;;;1.70;;
72408;SDS011;60402;48.082;11.628;2023-05-17T14:44:00;4.47;;;1.80;;
72408;SDS011;60402;48.082;11.628;2023-05-17T14:46:45;5.13;;;1.80;;
72408;SDS011;60402;48.082;11.628;2023-05-17T14:49:31;5.50;;;1.98;;
72408;SDS011;60402;48.082;11.628;2023-05-17T14:52:17;4.05;;;1.42;;
72408;SDS011;60402;48.082;11.628;2023-05-17T14:55:03;4.57;;;1.45;;
72408;SDS011;60402;48.082;11.628;2023-05-17T14:57:49;3.60;;;1.20;;
72408;SDS011;60402;48.082;11.628;2023-05-17T15:00:36;5.15;;;1.65;;
72408;SDS011;60402;48.082;11.628;2023-05-17T15:03:22;5.45;;;1.27;;
72408;SDS011;60402;48.082;11.628;2023-05-17T15:06:08;4.43;;;1.48;;
72408;SDS011;60402;48.082;11.628;2023-05-17T15:08:54;5.82;;;1.50;;
72408;SDS011;60402;48.082;11.628;2023-05-17T15:11:39;5.00;;;1.65;;
72408;SDS011;60402;48.082;11.628;2023-05-17T15:14:26;5.32;;;1.70;;
72408;SDS011;60402;48.082;11.628;2023-05-17T15:17:11;5.35;;;1.65;;
72408;SDS011;60402;48.082;11.628;2023-05-17T15:19:57;7.13;;;1.58;;
72408;SDS011;60402;48.082;11.628;2023-05-17T15:22:44;4.93;;;1.50;;
72408;SDS011;60402;48.082;11.628;2023-05-17T15:25:30;5.20;;;1.90;;
72408;SDS011;60402;48.082;11.628;2023-05-17T15:28:15;4.22;;;1.58;;
72408;SDS011;60402;48.082;11.628;2023-05-17T15:31:04;5.38;;;1.60;;
72408;SDS011;60402;48.082;11.628;2023-05-17T15:33:55;5.65;;;1.50;;
72408;SDS011;60402;48.082;11.628;2023-05-17T15:36:41;5.60;;;1.75;;
72408;SDS011;60402;48.082;11.628;2023-05-17T15:39:27;3.60;;;1.50;;
72408;SDS011;60402;48.082;11.628;2023-05-17T15:42:13;4.65;;;1.70;;
72408;SDS011;60402;48.082;11.628;2023-05-17T15:44:58;5.68;;;1.85;;
72408;SDS011;60402;48.082;11.628;2023-05-17T15:47:44;5.68;;;1.50;;
72408;SDS011;60402;48.082;11.628;2023-05-17T15:50:30;6.15;;;1.63;;
72408;SDS011;60402;48.082;11.628;2023-05-17T15:53:16;4.82;;;1.60;;
72408;SDS011;60402;48.082;11.628;2023-05-17T15:56:02;5.30;;;1.60;;
72408;SDS011;60402;48.082;11.628;2023-05-17T15:58:48;4.30;;;1.77;;
72408;SDS011;60402;48.082;11.628;2023-05-17T16:01:33;4.85;;;1.50;;
72408;SDS011;60402;48.082;11.628;2023-05-17T16:04:19;5.45;;;1.75;;
72408;SDS011;60402;48.082;11.628;2023-05-17T16:07:05;4.85;;;1.50;;
72408;SDS011;60402;48.082;11.628;2023-05-17T16:09:50;4.72;;;1.58;;
72408;SDS011;60402;48.082;11.628;2023-05-17T16:12:36;5.35;;;1.60;;
72408;SDS011;60402;48.082;11.628;2023-05-17T16:15:22;5.47;;;1.80;;
72408;SDS011;60402;48.082;11.628;2023-05-17T16:18:07;6.28;;;2.40;;
72408;SDS011;60402;48.082;11.628;2023-05-17T16:20:58;7.75;;;1.95;;
72408;SDS011;60402;48.082;11.628;2023-05-17T16:23:46;2.83;;;1.45;;
72408;SDS011;60402;48.082;11.628;2023-05-17T16:26:33;5.72;;;2.10;;
72408;SDS011;60402;48.082;11.628;2023-05-17T16:29:19;6.13;;;1.83;;
72408;SDS011;60402;48.082;11.628;2023-05-17T16:32:05;7.80;;;2.35;;
72408;SDS011;60402;48.082;11.628;2023-05-17T16:34:52;7.35;;;2.17;;
72408;SDS011;60402;48.082;11.628;2023-05-17T16:37:37;7.00;;;2.15;;
72408;SDS011;60402;48.082;11.628;2023-05-17T16:40:23;9.55;;;2.33;;
72408;SDS011;60402;48.082;11.628;2023-05-17T16:43:09;6.43;;;2.20;;
72408;SDS011;60402;48.082;11.628;2023-05-17T16:45:59;6.00;;;2.20;;
72408;SDS011;60402;48.082;11.628;2023-05-17T16:48:45;6.60;;;2.00;;
72408;SDS011;60402;48.082;11.628;2023-05-17T16:51:31;8.77;;;2.63;;
72408;SDS011;60402;48.082;11.628;2023-05-17T16:54:17;5.47;;;2.20;;
72408;SDS011;60402;48.082;11.628;2023-05-17T16:57:02;6.10;;;2.10;;
72408;SDS011;60402;48.082;11.628;2023-05-17T16:59:48;7.25;;;2.10;;